»·PEaware :: SWA549 KBFI-KPDX

SWA549 :: KBFI-KPDX

FLIGHT INFORMATION

Flight Status: Arrived
Operator:
Southwest Airlines
More flights by this operator :: More flights under this callsign
Pilot: Ben F. (2808)
Aircraft: BOEING 737-700
(B737)
More flights by this aircraft type
Origin: KBFI Boeing Field/King Co Intl
United States
Destination: KPDX Portland Intl
United States
More flights between these airports :: More routes between these airports
Route: +NRVNA1 BUWZO KRATR2
File this flight plan on PilotEdge
Remarks:
Altitude:
(Current/Filed)
17,000ft
Speed:
(Current/Filed)
341kts
Departed: 28-Mar-20 11:49 AM
Arrived: 28-Mar-20 12:18 PM
Distance/Time
Traveled:
117nm/0:28
Distance/Time
To Go:
Arrived

Flight Plot

Page will automatically refresh every two minutes.

Flight plan parsing failed; only flown route is shown


Map Options




Map Legend


Flown Route
Filed Route
Departure Airport
Arrival Airport
Navaid (VOR, NDB)
Fix

Horizontal Profiles

Position Reports

Time Latitude Longitude Heading Altitude Ground
Speed
28-Mar-20 10:56 47.540159 -122.313755 179 26ft 0kts
28-Mar-20 10:57 47.540159 -122.313755 179 26ft 0kts
28-Mar-20 10:58 47.540159 -122.313755 179 26ft 0kts
28-Mar-20 10:59 47.540159 -122.313755 179 26ft 0kts
28-Mar-20 11:00 47.540159 -122.313755 179 26ft 0kts
28-Mar-20 11:01 47.540159 -122.313755 179 26ft 0kts
28-Mar-20 11:02 47.540159 -122.313755 179 26ft 0kts
28-Mar-20 11:03 47.540159 -122.313755 179 26ft 0kts
28-Mar-20 11:04 47.540159 -122.313755 179 26ft 0kts
28-Mar-20 11:05 47.540159 -122.313755 179 26ft 0kts
28-Mar-20 11:06 47.540159 -122.313755 179 26ft 0kts
28-Mar-20 11:07 47.540159 -122.313755 179 26ft 0kts
28-Mar-20 11:08 47.540159 -122.313755 179 26ft 0kts
28-Mar-20 11:09 47.540159 -122.313755 179 26ft 0kts
28-Mar-20 11:11 47.540159 -122.313755 179 26ft 0kts
28-Mar-20 11:12 47.540159 -122.313755 179 26ft 0kts
28-Mar-20 11:13 47.540159 -122.313755 179 26ft 0kts
28-Mar-20 11:14 47.540159 -122.313755 179 26ft 0kts
28-Mar-20 11:15 47.540159 -122.313755 179 26ft 0kts
28-Mar-20 11:16 47.540159 -122.313755 179 26ft 0kts
28-Mar-20 11:17 47.540159 -122.313755 179 26ft 0kts
28-Mar-20 11:18 47.540158 -122.313755 179 26ft 0kts
28-Mar-20 11:19 47.540157 -122.313755 179 26ft 0kts
28-Mar-20 11:20 47.540056 -122.313755 179 26ft 0kts
28-Mar-20 11:21 47.540055 -122.313755 180 26ft 0kts
28-Mar-20 11:22 47.540053 -122.313755 180 26ft 0kts
28-Mar-20 11:23 47.540052 -122.313755 180 26ft 0kts
28-Mar-20 11:24 47.540033 -122.313755 180 26ft 0kts
28-Mar-20 11:25 47.540032 -122.313755 180 26ft 0kts
28-Mar-20 11:26 47.540031 -122.313755 180 26ft 0kts
28-Mar-20 11:27 47.540031 -122.313755 180 26ft 0kts
28-Mar-20 11:28 47.540031 -122.313755 180 26ft 0kts
28-Mar-20 11:28 47.540031 -122.313755 180 26ft 0kts
28-Mar-20 11:29 47.540031 -122.313755 180 26ft 0kts
28-Mar-20 11:30 47.540031 -122.313755 180 26ft 0kts
28-Mar-20 11:32 47.540031 -122.313755 180 26ft 0kts
28-Mar-20 11:32 47.540031 -122.313755 180 26ft 0kts
28-Mar-20 11:33 47.539597 -122.312868 61 26ft 0kts
28-Mar-20 11:34 47.539597 -122.312868 61 26ft 0kts
28-Mar-20 11:35 47.539597 -122.312868 61 26ft 0kts
28-Mar-20 11:36 47.539597 -122.312868 61 26ft 0kts
28-Mar-20 11:37 47.539597 -122.312868 61 26ft 0kts
28-Mar-20 11:38 47.539597 -122.312868 61 26ft 0kts
28-Mar-20 11:39 47.539597 -122.312868 61 26ft 0kts
28-Mar-20 11:40 47.539717 -122.312517 64 26ft 9kts
28-Mar-20 11:41 47.539818 -122.312222 59 26ft 0kts
28-Mar-20 11:42 47.539818 -122.312222 59 26ft 0kts
28-Mar-20 11:43 47.539818 -122.312222 59 26ft 0kts
28-Mar-20 11:44 47.539818 -122.312222 59 26ft 0kts
28-Mar-20 11:45 47.539845 -122.312155 59 26ft 5kts
28-Mar-20 11:46 47.539932 -122.310926 144 26ft 0kts
28-Mar-20 11:47 47.539927 -122.310921 144 26ft 1kts
28-Mar-20 11:48 47.516283 -122.290639 150 693ft 170kts
28-Mar-20 11:49 47.472514 -122.254973 151 2617ft 206kts
28-Mar-20 11:50 47.416187 -122.205823 151 5325ft 252kts
28-Mar-20 11:51 47.355655 -122.147565 151 8561ft 268kts
28-Mar-20 11:52 47.285057 -122.143126 201 11138ft 287kts
28-Mar-20 11:53 47.198145 -122.176063 176 12847ft 352kts
28-Mar-20 11:54 47.100119 -122.140885 180 15722ft 367kts
28-Mar-20 11:55 46.996445 -122.149836 187 16989ft 380kts
28-Mar-20 11:56 46.890467 -122.160345 187 16998ft 381kts
28-Mar-20 11:57 46.785634 -122.177515 195 16998ft 378kts
28-Mar-20 11:58 46.682753 -122.211126 195 17000ft 379kts
28-Mar-20 11:59 46.579928 -122.244572 195 17017ft 373kts
28-Mar-20 12:00 46.483206 -122.275906 195 16984ft 348kts
28-Mar-20 12:01 46.389777 -122.306425 195 15332ft 341kts
28-Mar-20 12:02 46.298457 -122.335980 195 13558ft 332kts
28-Mar-20 12:03 46.210283 -122.364251 195 12402ft 306kts
28-Mar-20 12:04 46.134725 -122.388414 195 12123ft 248kts
28-Mar-20 12:05 46.071677 -122.411800 203 11672ft 236kts
28-Mar-20 12:06 46.012836 -122.444297 203 10440ft 244kts
28-Mar-20 12:07 45.948813 -122.478757 203 9153ft 243kts
28-Mar-20 12:08 45.896049 -122.532372 222 7926ft 226kts
28-Mar-20 12:09 45.850368 -122.590384 221 6771ft 213kts
28-Mar-20 12:10 45.806536 -122.645573 221 5675ft 207kts
28-Mar-20 12:11 45.762607 -122.700292 220 4625ft 208kts
28-Mar-20 12:12 45.721007 -122.750704 219 3969ft 182kts
28-Mar-20 12:13 45.674499 -122.768980 167 3141ft 183kts
28-Mar-20 12:14 45.642215 -122.719712 119 2684ft 171kts
28-Mar-20 12:15 45.620333 -122.660704 123 1188ft 157kts
28-Mar-20 12:16 45.600514 -122.610225 122 264ft 135kts
28-Mar-20 12:17 45.588925 -122.581974 208 38ft 6kts
28-Mar-20 12:18 45.588645 -122.582195 209 38ft 1kts
28-Mar-20 12:19 45.589557 -122.586583 264 38ft 13kts
28-Mar-20 12:20 45.591244 -122.591838 299 38ft 17kts
28-Mar-20 12:21 45.593111 -122.597168 259 38ft 13kts
28-Mar-20 12:22 45.590547 -122.598864 208 38ft 8kts
28-Mar-20 12:23 45.590414 -122.598969 208 38ft 0kts
28-Mar-20 12:24 45.590414 -122.598969 208 38ft 0kts
28-Mar-20 12:25 45.590414 -122.598969 208 38ft 0kts
28-Mar-20 12:26 45.590414 -122.598969 208 38ft 0kts
28-Mar-20 12:27 45.590414 -122.598969 208 38ft 0kts
28-Mar-20 12:28 45.590414 -122.598969 208 38ft 0kts
28-Mar-20 12:29 45.590414 -122.598969 208 38ft 0kts
28-Mar-20 12:30 45.590414 -122.598969 208 38ft 0kts
28-Mar-20 12:31 45.590414 -122.598969 208 38ft 0kts

Navigation Log

Ident Type
Flight plan parsing failed, navigation log unavailable